sensor_id;sensor_type;location;lat;lon;timestamp;temperature;humidity
47521;DHT22;32291;52.010;4.446;2024-03-25T00:00:46;4.70;99.90
47521;DHT22;32291;52.010;4.446;2024-03-25T00:01:53;4.70;99.90
47521;DHT22;32291;52.010;4.446;2024-03-25T00:02:55;4.60;99.90
47521;DHT22;32291;52.010;4.446;2024-03-25T00:04:02;4.60;99.90
47521;DHT22;32291;52.010;4.446;2024-03-25T00:05:09;4.60;99.90
47521;DHT22;32291;52.010;4.446;2024-03-25T00:06:12;4.60;99.90
47521;DHT22;32291;52.010;4.446;2024-03-25T00:07:14;4.50;99.90
47521;DHT22;32291;52.010;4.446;2024-03-25T00:08:21;4.50;99.90
47521;DHT22;32291;52.010;4.446;2024-03-25T00:09:24;4.50;99.90
47521;DHT22;32291;52.010;4.446;2024-03-25T00:10:26;4.50;99.90
47521;DHT22;32291;52.010;4.446;2024-03-25T00:11:28;4.50;99.90
47521;DHT22;32291;52.010;4.446;2024-03-25T00:12:35;4.50;99.90
47521;DHT22;32291;52.010;4.446;2024-03-25T00:13:38;4.50;99.90
47521;DHT22;32291;52.010;4.446;2024-03-25T00:14:40;4.50;99.90
47521;DHT22;32291;52.010;4.446;2024-03-25T00:15:47;4.50;99.90
47521;DHT22;32291;52.010;4.446;2024-03-25T00:16:49;4.50;99.90
47521;DHT22;32291;52.010;4.446;2024-03-25T00:17:57;4.50;99.90
47521;DHT22;32291;52.010;4.446;2024-03-25T00:18:59;4.50;99.90
47521;DHT22;32291;52.010;4.446;2024-03-25T00:20:01;4.50;99.90
47521;DHT22;32291;52.010;4.446;2024-03-25T00:21:03;4.50;99.90
47521;DHT22;32291;52.010;4.446;2024-03-25T00:22:05;4.50;99.90
47521;DHT22;32291;52.010;4.446;2024-03-25T00:23:12;4.50;99.90
47521;DHT22;32291;52.010;4.446;2024-03-25T00:24:15;4.50;99.90
47521;DHT22;32291;52.010;4.446;2024-03-25T00:25:17;4.50;99.90
47521;DHT22;32291;52.010;4.446;2024-03-25T00:26:19;4.50;99.90
47521;DHT22;32291;52.010;4.446;2024-03-25T00:27:22;4.50;99.90
47521;DHT22;32291;52.010;4.446;2024-03-25T00:28:29;4.50;99.90
47521;DHT22;32291;52.010;4.446;2024-03-25T00:29:31;4.50;99.90
47521;DHT22;32291;52.010;4.446;2024-03-25T00:30:33;4.50;99.90
47521;DHT22;32291;52.010;4.446;2024-03-25T00:31:40;4.50;99.90
47521;DHT22;32291;52.010;4.446;2024-03-25T00:32:42;4.50;99.90
47521;DHT22;32291;52.010;4.446;2024-03-25T00:33:44;4.50;99.90
47521;DHT22;32291;52.010;4.446;2024-03-25T00:34:47;4.50;99.90
47521;DHT22;32291;52.010;4.446;2024-03-25T00:35:49;4.50;99.90
47521;DHT22;32291;52.010;4.446;2024-03-25T00:36:51;4.60;99.90
47521;DHT22;32291;52.010;4.446;2024-03-25T00:37:54;4.50;99.90
47521;DHT22;32291;52.010;4.446;2024-03-25T00:38:56;4.50;99.90
47521;DHT22;32291;52.010;4.446;2024-03-25T00:39:58;4.60;99.90
47521;DHT22;32291;52.010;4.446;2024-03-25T00:41:05;4.60;99.90
47521;DHT22;32291;52.010;4.446;2024-03-25T00:42:08;4.60;99.90
47521;DHT22;32291;52.010;4.446;2024-03-25T00:43:10;4.60;99.90
47521;DHT22;32291;52.010;4.446;2024-03-25T00:44:12;4.60;99.90
47521;DHT22;32291;52.010;4.446;2024-03-25T00:45:19;4.50;99.90
47521;DHT22;32291;52.010;4.446;2024-03-25T00:46:21;4.50;99.90
47521;DHT22;32291;52.010;4.446;2024-03-25T00:47:24;4.50;99.90
47521;DHT22;32291;52.010;4.446;2024-03-25T00:48:26;4.50;99.90
47521;DHT22;32291;52.010;4.446;2024-03-25T00:49:28;4.50;99.90
47521;DHT22;32291;52.010;4.446;2024-03-25T00:50:31;4.50;99.90
47521;DHT22;32291;52.010;4.446;2024-03-25T00:51:33;4.50;99.90
47521;DHT22;32291;52.010;4.446;2024-03-25T00:52:36;4.50;99.90
47521;DHT22;32291;52.010;4.446;2024-03-25T00:53:38;4.50;99.90
47521;DHT22;32291;52.010;4.446;2024-03-25T00:54:41;4.50;99.90
47521;DHT22;32291;52.010;4.446;2024-03-25T00:55:43;4.40;99.90
47521;DHT22;32291;52.010;4.446;2024-03-25T00:56:51;4.50;99.90
47521;DHT22;32291;52.010;4.446;2024-03-25T00:57:55;4.40;99.90
47521;DHT22;32291;52.010;4.446;2024-03-25T00:58:57;4.50;99.90
47521;DHT22;32291;52.010;4.446;2024-03-25T01:00:04;4.40;99.90
47521;DHT22;32291;52.010;4.446;2024-03-25T01:01:07;4.40;99.90
47521;DHT22;32291;52.010;4.446;2024-03-25T01:02:09;4.50;99.90
47521;DHT22;32291;52.010;4.446;2024-03-25T01:03:16;4.40;99.90
47521;DHT22;32291;52.010;4.446;2024-03-25T01:04:18;4.50;99.90
47521;DHT22;32291;52.010;4.446;2024-03-25T01:05:21;4.60;99.90
47521;DHT22;32291;52.010;4.446;2024-03-25T01:06:23;4.50;99.90
47521;DHT22;32291;52.010;4.446;2024-03-25T01:07:26;4.50;99.90
47521;DHT22;32291;52.010;4.446;2024-03-25T01:08:28;4.50;99.90
47521;DHT22;32291;52.010;4.446;2024-03-25T01:09:36;4.50;99.90
47521;DHT22;32291;52.010;4.446;2024-03-25T01:10:43;4.50;99.90
47521;DHT22;32291;52.010;4.446;2024-03-25T01:11:45;4.40;99.90
47521;DHT22;32291;52.010;4.446;2024-03-25T01:12:52;4.40;99.90
47521;DHT22;32291;52.010;4.446;2024-03-25T01:13:54;4.50;99.90
47521;DHT22;32291;52.010;4.446;2024-03-25T01:14:56;4.40;99.90
47521;DHT22;32291;52.010;4.446;2024-03-25T01:15:58;4.50;99.90
47521;DHT22;32291;52.010;4.446;2024-03-25T01:17:01;4.40;99.90
47521;DHT22;32291;52.010;4.446;2024-03-25T01:18:10;4.40;99.90
47521;DHT22;32291;52.010;4.446;2024-03-25T01:19:12;4.40;99.90
47521;DHT22;32291;52.010;4.446;2024-03-25T01:20:15;4.40;99.90
47521;DHT22;32291;52.010;4.446;2024-03-25T01:21:22;4.40;99.90
47521;DHT22;32291;52.010;4.446;2024-03-25T01:22:24;4.40;99.90
47521;DHT22;32291;52.010;4.446;2024-03-25T01:23:31;4.40;99.90
47521;DHT22;32291;52.010;4.446;2024-03-25T01:24:33;4.30;99.90
47521;DHT22;32291;52.010;4.446;2024-03-25T01:25:35;4.30;99.90
47521;DHT22;32291;52.010;4.446;2024-03-25T01:26:39;4.20;99.90
47521;DHT22;32291;52.010;4.446;2024-03-25T01:27:41;4.20;99.90
47521;DHT22;32291;52.010;4.446;2024-03-25T01:28:44;4.20;99.90
47521;DHT22;32291;52.010;4.446;2024-03-25T01:29:46;4.20;99.90
47521;DHT22;32291;52.010;4.446;2024-03-25T01:30:49;4.20;99.90
47521;DHT22;32291;52.010;4.446;2024-03-25T01:31:56;4.20;99.90
47521;DHT22;32291;52.010;4.446;2024-03-25T01:33:00;4.20;99.90
47521;DHT22;32291;52.010;4.446;2024-03-25T01:34:03;4.10;99.90
47521;DHT22;32291;52.010;4.446;2024-03-25T01:35:06;4.10;99.90
47521;DHT22;32291;52.010;4.446;2024-03-25T01:36:09;4.10;99.90
47521;DHT22;32291;52.010;4.446;2024-03-25T01:37:13;4.10;99.90
47521;DHT22;32291;52.010;4.446;2024-03-25T01:38:20;4.10;99.90
47521;DHT22;32291;52.010;4.446;2024-03-25T01:39:22;4.10;99.90
47521;DHT22;32291;52.010;4.446;2024-03-25T01:40:30;4.10;99.90
47521;DHT22;32291;52.010;4.446;2024-03-25T01:41:33;4.10;99.90
47521;DHT22;32291;52.010;4.446;2024-03-25T01:42:36;4.00;99.90
47521;DHT22;32291;52.010;4.446;2024-03-25T01:43:38;4.00;99.90
47521;DHT22;32291;52.010;4.446;2024-03-25T01:44:41;3.90;99.90
47521;DHT22;32291;52.010;4.446;2024-03-25T01:45:43;4.00;99.90
47521;DHT22;32291;52.010;4.446;2024-03-25T01:46:51;3.90;99.90
47521;DHT22;32291;52.010;4.446;2024-03-25T01:47:54;3.90;99.90
47521;DHT22;32291;52.010;4.446;2024-03-25T01:48:58;3.90;99.90
47521;DHT22;32291;52.010;4.446;2024-03-25T01:50:01;3.80;99.90
47521;DHT22;32291;52.010;4.446;2024-03-25T01:51:05;3.80;99.90
47521;DHT22;32291;52.010;4.446;2024-03-25T01:52:07;3.80;99.90
47521;DHT22;32291;52.010;4.446;2024-03-25T01:53:12;3.80;99.90
47521;DHT22;32291;52.010;4.446;2024-03-25T01:54:16;3.80;99.90
47521;DHT22;32291;52.010;4.446;2024-03-25T01:55:21;3.90;99.90
47521;DHT22;32291;52.010;4.446;2024-03-25T01:56:33;3.90;99.90
47521;DHT22;32291;52.010;4.446;2024-03-25T01:57:43;4.00;99.90
47521;DHT22;32291;52.010;4.446;2024-03-25T01:58:51;4.00;99.90
47521;DHT22;32291;52.010;4.446;2024-03-25T01:59:54;4.10;99.90
47521;DHT22;32291;52.010;4.446;2024-03-25T02:00:56;4.10;99.90
47521;DHT22;32291;52.010;4.446;2024-03-25T02:02:11;4.10;99.90
47521;DHT22;32291;52.010;4.446;2024-03-25T02:03:13;4.10;99.90
47521;DHT22;32291;52.010;4.446;2024-03-25T02:04:16;4.10;99.90
47521;DHT22;32291;52.010;4.446;2024-03-25T02:05:18;4.20;99.90
47521;DHT22;32291;52.010;4.446;2024-03-25T02:06:22;4.10;99.90
47521;DHT22;32291;52.010;4.446;2024-03-25T02:07:27;4.20;99.90
47521;DHT22;32291;52.010;4.446;2024-03-25T02:08:36;4.20;99.90
47521;DHT22;32291;52.010;4.446;2024-03-25T02:09:41;4.20;99.90
47521;DHT22;32291;52.010;4.446;2024-03-25T02:10:44;4.20;99.90
47521;DHT22;32291;52.010;4.446;2024-03-25T02:11:47;4.20;99.90
47521;DHT22;32291;52.010;4.446;2024-03-25T02:12:49;4.20;99.90
47521;DHT22;32291;52.010;4.446;2024-03-25T02:13:54;4.20;99.90
47521;DHT22;32291;52.010;4.446;2024-03-25T02:14:57;4.20;99.90
47521;DHT22;32291;52.010;4.446;2024-03-25T02:16:00;4.30;99.90
47521;DHT22;32291;52.010;4.446;2024-03-25T02:17:06;4.30;99.90
47521;DHT22;32291;52.010;4.446;2024-03-25T02:18:09;4.30;99.90
47521;DHT22;32291;52.010;4.446;2024-03-25T02:19:13;4.30;99.90
47521;DHT22;32291;52.010;4.446;2024-03-25T02:20:17;4.30;99.90
47521;DHT22;32291;52.010;4.446;2024-03-25T02:21:19;4.30;99.90
47521;DHT22;32291;52.010;4.446;2024-03-25T02:22:21;4.30;99.90
47521;DHT22;32291;52.010;4.446;2024-03-25T02:23:24;4.30;99.90
47521;DHT22;32291;52.010;4.446;2024-03-25T02:24:28;4.20;99.90
47521;DHT22;32291;52.010;4.446;2024-03-25T02:25:39;4.20;99.90
47521;DHT22;32291;52.010;4.446;2024-03-25T02:26:44;4.20;99.90
47521;DHT22;32291;52.010;4.446;2024-03-25T02:27:51;4.20;99.90
47521;DHT22;32291;52.010;4.446;2024-03-25T02:28:53;4.20;99.90
47521;DHT22;32291;52.010;4.446;2024-03-25T02:30:02;4.20;99.90
47521;DHT22;32291;52.010;4.446;2024-03-25T02:31:05;4.20;99.90
47521;DHT22;32291;52.010;4.446;2024-03-25T02:32:08;4.20;99.90
47521;DHT22;32291;52.010;4.446;2024-03-25T02:33:12;4.20;99.90
47521;DHT22;32291;52.010;4.446;2024-03-25T02:34:14;4.10;99.90
47521;DHT22;32291;52.010;4.446;2024-03-25T02:35:17;4.20;99.90
47521;DHT22;32291;52.010;4.446;2024-03-25T02:36:19;4.20;99.90
47521;DHT22;32291;52.010;4.446;2024-03-25T02:37:21;4.20;99.90
47521;DHT22;32291;52.010;4.446;2024-03-25T02:38:29;4.10;99.90
47521;DHT22;32291;52.010;4.446;2024-03-25T02:39:32;4.10;99.90
47521;DHT22;32291;52.010;4.446;2024-03-25T02:40:40;4.10;99.90
47521;DHT22;32291;52.010;4.446;2024-03-25T02:41:47;4.10;99.90
47521;DHT22;32291;52.010;4.446;2024-03-25T02:42:50;4.00;99.90
47521;DHT22;32291;52.010;4.446;2024-03-25T02:43:55;4.00;99.90
47521;DHT22;32291;52.010;4.446;2024-03-25T02:44:57;3.90;99.90
47521;DHT22;32291;52.010;4.446;2024-03-25T02:46:00;3.90;99.90
47521;DHT22;32291;52.010;4.446;2024-03-25T02:47:05;3.80;99.90
47521;DHT22;32291;52.010;4.446;2024-03-25T02:48:07;3.80;99.90
47521;DHT22;32291;52.010;4.446;2024-03-25T02:49:14;3.80;99.90
47521;DHT22;32291;52.010;4.446;2024-03-25T02:50:21;3.70;99.90
47521;DHT22;32291;52.010;4.446;2024-03-25T02:51:23;3.70;99.90
47521;DHT22;32291;52.010;4.446;2024-03-25T02:52:25;3.70;99.90
47521;DHT22;32291;52.010;4.446;2024-03-25T02:53:28;3.70;99.90
47521;DHT22;32291;52.010;4.446;2024-03-25T02:54:30;3.70;99.90
47521;DHT22;32291;52.010;4.446;2024-03-25T02:55:40;3.70;99.90
47521;DHT22;32291;52.010;4.446;2024-03-25T02:56:47;3.60;99.90
47521;DHT22;32291;52.010;4.446;2024-03-25T02:57:49;3.60;99.90
47521;DHT22;32291;52.010;4.446;2024-03-25T02:58:54;3.50;99.90
47521;DHT22;32291;52.010;4.446;2024-03-25T02:59:56;3.40;99.90
47521;DHT22;32291;52.010;4.446;2024-03-25T03:01:03;3.60;99.90
47521;DHT22;32291;52.010;4.446;2024-03-25T03:02:05;3.50;99.90
47521;DHT22;32291;52.010;4.446;2024-03-25T03:03:14;3.40;99.90
47521;DHT22;32291;52.010;4.446;2024-03-25T03:04:19;3.40;99.90
47521;DHT22;32291;52.010;4.446;2024-03-25T03:05:21;3.40;99.90
47521;DHT22;32291;52.010;4.446;2024-03-25T03:06:28;3.40;99.90
47521;DHT22;32291;52.010;4.446;2024-03-25T03:07:35;3.40;99.90
47521;DHT22;32291;52.010;4.446;2024-03-25T03:08:40;3.40;99.90
47521;DHT22;32291;52.010;4.446;2024-03-25T03:09:43;3.40;99.90
47521;DHT22;32291;52.010;4.446;2024-03-25T03:10:50;3.40;99.90
47521;DHT22;32291;52.010;4.446;2024-03-25T03:11:52;3.40;99.90
47521;DHT22;32291;52.010;4.446;2024-03-25T03:12:54;3.40;99.90
47521;DHT22;32291;52.010;4.446;2024-03-25T03:13:56;3.20;99.90
47521;DHT22;32291;52.010;4.446;2024-03-25T03:15:03;3.30;99.90
47521;DHT22;32291;52.010;4.446;2024-03-25T03:16:07;3.30;99.90
47521;DHT22;32291;52.010;4.446;2024-03-25T03:17:09;3.30;99.90
47521;DHT22;32291;52.010;4.446;2024-03-25T03:18:16;3.30;99.90
47521;DHT22;32291;52.010;4.446;2024-03-25T03:19:25;3.30;99.90
47521;DHT22;32291;52.010;4.446;2024-03-25T03:20:32;3.30;99.90
47521;DHT22;32291;52.010;4.446;2024-03-25T03:21:35;3.30;99.90
47521;DHT22;32291;52.010;4.446;2024-03-25T03:22:40;3.30;99.90
47521;DHT22;32291;52.010;4.446;2024-03-25T03:23:47;3.30;99.90
47521;DHT22;32291;52.010;4.446;2024-03-25T03:24:49;3.40;99.90
47521;DHT22;32291;52.010;4.446;2024-03-25T03:25:51;3.30;99.90
47521;DHT22;32291;52.010;4.446;2024-03-25T03:26:54;3.30;99.90
47521;DHT22;32291;52.010;4.446;2024-03-25T03:27:56;3.30;99.90
47521;DHT22;32291;52.010;4.446;2024-03-25T03:29:03;3.30;99.90
47521;DHT22;32291;52.010;4.446;2024-03-25T03:30:11;3.50;99.90
47521;DHT22;32291;52.010;4.446;2024-03-25T03:31:13;3.40;99.90
47521;DHT22;32291;52.010;4.446;2024-03-25T03:32:20;3.40;99.90
47521;DHT22;32291;52.010;4.446;2024-03-25T03:33:27;3.30;99.90
47521;DHT22;32291;52.010;4.446;2024-03-25T03:34:29;3.40;99.90
47521;DHT22;32291;52.010;4.446;2024-03-25T03:35:36;3.30;99.90
47521;DHT22;32291;52.010;4.446;2024-03-25T03:36:41;3.30;99.90
47521;DHT22;32291;52.010;4.446;2024-03-25T03:37:48;3.20;99.90
47521;DHT22;32291;52.010;4.446;2024-03-25T03:38:55;3.30;99.90
47521;DHT22;32291;52.010;4.446;2024-03-25T03:40:02;3.20;99.90
47521;DHT22;32291;52.010;4.446;2024-03-25T03:41:08;3.10;99.90
47521;DHT22;32291;52.010;4.446;2024-03-25T03:42:15;3.10;99.90
47521;DHT22;32291;52.010;4.446;2024-03-25T03:43:22;3.10;99.90
47521;DHT22;32291;52.010;4.446;2024-03-25T03:44:24;3.00;99.90
47521;DHT22;32291;52.010;4.446;2024-03-25T03:45:26;3.00;99.90
47521;DHT22;32291;52.010;4.446;2024-03-25T03:46:38;3.00;99.90
47521;DHT22;32291;52.010;4.446;2024-03-25T03:47:40;3.00;99.90
47521;DHT22;32291;52.010;4.446;2024-03-25T03:48:43;2.90;99.90
47521;DHT22;32291;52.010;4.446;2024-03-25T03:49:50;2.90;99.90
47521;DHT22;32291;52.010;4.446;2024-03-25T03:50:53;2.90;99.90
47521;DHT22;32291;52.010;4.446;2024-03-25T03:51:59;2.90;99.90
47521;DHT22;32291;52.010;4.446;2024-03-25T03:53:06;2.90;99.90
47521;DHT22;32291;52.010;4.446;2024-03-25T03:54:13;2.90;99.90
47521;DHT22;32291;52.010;4.446;2024-03-25T03:55:15;2.90;99.90
47521;DHT22;32291;52.010;4.446;2024-03-25T03:56:22;2.80;99.90
47521;DHT22;32291;52.010;4.446;2024-03-25T03:57:25;2.90;99.90
47521;DHT22;32291;52.010;4.446;2024-03-25T03:58:28;2.80;99.90
47521;DHT22;32291;52.010;4.446;2024-03-25T03:59:35;2.80;99.90
47521;DHT22;32291;52.010;4.446;2024-03-25T04:00:42;2.80;99.90
47521;DHT22;32291;52.010;4.446;2024-03-25T04:01:44;2.70;99.90
47521;DHT22;32291;52.010;4.446;2024-03-25T04:02:46;2.70;99.90
47521;DHT22;32291;52.010;4.446;2024-03-25T04:03:49;2.70;99.90
47521;DHT22;32291;52.010;4.446;2024-03-25T04:04:56;2.70;99.90
47521;DHT22;32291;52.010;4.446;2024-03-25T04:06:08;2.70;99.90
47521;DHT22;32291;52.010;4.446;2024-03-25T04:07:14;2.60;99.90
47521;DHT22;32291;52.010;4.446;2024-03-25T04:08:17;2.60;99.90
47521;DHT22;32291;52.010;4.446;2024-03-25T04:09:19;2.60;99.90
47521;DHT22;32291;52.010;4.446;2024-03-25T04:10:27;2.60;99.90
47521;DHT22;32291;52.010;4.446;2024-03-25T04:11:36;2.60;99.90
47521;DHT22;32291;52.010;4.446;2024-03-25T04:12:41;2.70;99.90
47521;DHT22;32291;52.010;4.446;2024-03-25T04:13:48;2.60;99.90
47521;DHT22;32291;52.010;4.446;2024-03-25T04:14:55;2.60;99.90
47521;DHT22;32291;52.010;4.446;2024-03-25T04:16:03;2.70;99.90
47521;DHT22;32291;52.010;4.446;2024-03-25T04:17:09;2.60;99.90
47521;DHT22;32291;52.010;4.446;2024-03-25T04:18:18;2.70;99.90
47521;DHT22;32291;52.010;4.446;2024-03-25T04:19:23;2.60;99.90
47521;DHT22;32291;52.010;4.446;2024-03-25T04:20:30;2.70;99.90
47521;DHT22;32291;52.010;4.446;2024-03-25T04:21:43;2.70;99.90
47521;DHT22;32291;52.010;4.446;2024-03-25T04:22:46;2.70;99.90
47521;DHT22;32291;52.010;4.446;2024-03-25T04:23:54;2.60;99.90
47521;DHT22;32291;52.010;4.446;2024-03-25T04:25:01;2.70;99.90
47521;DHT22;32291;52.010;4.446;2024-03-25T04:26:03;2.70;99.90
47521;DHT22;32291;52.010;4.446;2024-03-25T04:27:10;2.60;99.90
47521;DHT22;32291;52.010;4.446;2024-03-25T04:28:15;2.60;99.90
47521;DHT22;32291;52.010;4.446;2024-03-25T04:29:22;2.60;99.90
47521;DHT22;32291;52.010;4.446;2024-03-25T04:30:24;2.60;99.90
47521;DHT22;32291;52.010;4.446;2024-03-25T04:31:31;2.70;99.90
47521;DHT22;32291;52.010;4.446;2024-03-25T04:32:39;2.50;99.90
47521;DHT22;32291;52.010;4.446;2024-03-25T04:33:47;2.50;99.90
47521;DHT22;32291;52.010;4.446;2024-03-25T04:34:49;2.50;99.90
47521;DHT22;32291;52.010;4.446;2024-03-25T04:35:52;2.50;99.90
47521;DHT22;32291;52.010;4.446;2024-03-25T04:36:54;2.40;99.90
47521;DHT22;32291;52.010;4.446;2024-03-25T04:37:56;2.40;99.90
47521;DHT22;32291;52.010;4.446;2024-03-25T04:39:03;2.30;99.90
47521;DHT22;32291;52.010;4.446;2024-03-25T04:40:05;2.30;99.90
47521;DHT22;32291;52.010;4.446;2024-03-25T04:41:14;2.30;99.90
47521;DHT22;32291;52.010;4.446;2024-03-25T04:42:19;2.30;99.90
47521;DHT22;32291;52.010;4.446;2024-03-25T04:43:25;2.20;99.90
47521;DHT22;32291;52.010;4.446;2024-03-25T04:44:33;2.30;99.90
47521;DHT22;32291;52.010;4.446;2024-03-25T04:45:40;2.30;99.90
47521;DHT22;32291;52.010;4.446;2024-03-25T04:46:42;2.10;99.90
47521;DHT22;32291;52.010;4.446;2024-03-25T04:47:49;2.10;99.90
47521;DHT22;32291;52.010;4.446;2024-03-25T04:48:51;2.10;99.90
47521;DHT22;32291;52.010;4.446;2024-03-25T04:49:58;2.10;99.90
47521;DHT22;32291;52.010;4.446;2024-03-25T04:51:05;2.10;99.90
47521;DHT22;32291;52.010;4.446;2024-03-25T04:52:12;2.00;99.90
47521;DHT22;32291;52.010;4.446;2024-03-25T04:53:14;2.00;99.90
47521;DHT22;32291;52.010;4.446;2024-03-25T04:54:21;2.00;99.90
47521;DHT22;32291;52.010;4.446;2024-03-25T04:55:24;2.00;99.90
47521;DHT22;32291;52.010;4.446;2024-03-25T04:56:26;1.90;99.90
47521;DHT22;32291;52.010;4.446;2024-03-25T04:57:28;2.00;99.90
47521;DHT22;32291;52.010;4.446;2024-03-25T04:58:35;2.00;99.90
47521;DHT22;32291;52.010;4.446;2024-03-25T04:59:37;1.90;99.90
47521;DHT22;32291;52.010;4.446;2024-03-25T05:00:44;1.90;99.90
47521;DHT22;32291;52.010;4.446;2024-03-25T05:01:51;1.90;99.90
47521;DHT22;32291;52.010;4.446;2024-03-25T05:02:53;1.90;99.90
47521;DHT22;32291;52.010;4.446;2024-03-25T05:03:57;1.90;99.90
47521;DHT22;32291;52.010;4.446;2024-03-25T05:05:04;2.00;99.90
47521;DHT22;32291;52.010;4.446;2024-03-25T05:06:13;1.90;99.90
47521;DHT22;32291;52.010;4.446;2024-03-25T05:07:15;2.00;99.90
47521;DHT22;32291;52.010;4.446;2024-03-25T05:08:22;2.00;99.90
47521;DHT22;32291;52.010;4.446;2024-03-25T05:09:25;2.10;99.90
47521;DHT22;32291;52.010;4.446;2024-03-25T05:10:32;2.10;99.90
47521;DHT22;32291;52.010;4.446;2024-03-25T05:11:39;2.10;99.90
47521;DHT22;32291;52.010;4.446;2024-03-25T05:12:41;2.10;99.90
47521;DHT22;32291;52.010;4.446;2024-03-25T05:13:45;2.10;99.90
47521;DHT22;32291;52.010;4.446;2024-03-25T05:14:47;2.10;99.90
47521;DHT22;32291;52.010;4.446;2024-03-25T05:15:50;2.10;99.90
47521;DHT22;32291;52.010;4.446;2024-03-25T05:16:58;2.20;99.90
47521;DHT22;32291;52.010;4.446;2024-03-25T05:18:03;2.20;99.90
47521;DHT22;32291;52.010;4.446;2024-03-25T05:19:10;2.20;99.90
47521;DHT22;32291;52.010;4.446;2024-03-25T05:20:17;2.20;99.90
47521;DHT22;32291;52.010;4.446;2024-03-25T05:21:24;2.20;99.90
47521;DHT22;32291;52.010;4.446;2024-03-25T05:22:26;2.20;99.90
47521;DHT22;32291;52.010;4.446;2024-03-25T05:23:33;2.20;99.90
47521;DHT22;32291;52.010;4.446;2024-03-25T05:24:40;2.30;99.90
47521;DHT22;32291;52.010;4.446;2024-03-25T05:25:42;2.30;99.90
47521;DHT22;32291;52.010;4.446;2024-03-25T05:26:44;2.30;99.90
47521;DHT22;32291;52.010;4.446;2024-03-25T05:27:46;2.30;99.90
47521;DHT22;32291;52.010;4.446;2024-03-25T05:28:57;2.30;99.90
47521;DHT22;32291;52.010;4.446;2024-03-25T05:29:59;2.30;99.90
47521;DHT22;32291;52.010;4.446;2024-03-25T05:31:10;2.30;99.90
47521;DHT22;32291;52.010;4.446;2024-03-25T05:32:12;2.20;99.90
47521;DHT22;32291;52.010;4.446;2024-03-25T05:33:19;2.20;99.90
47521;DHT22;32291;52.010;4.446;2024-03-25T05:34:21;2.20;99.90
47521;DHT22;32291;52.010;4.446;2024-03-25T05:35:28;2.20;99.90
47521;DHT22;32291;52.010;4.446;2024-03-25T05:36:32;2.20;99.90
47521;DHT22;32291;52.010;4.446;2024-03-25T05:37:39;2.20;99.90
47521;DHT22;32291;52.010;4.446;2024-03-25T05:38:46;2.20;99.90
47521;DHT22;32291;52.010;4.446;2024-03-25T05:39:53;2.10;99.90
47521;DHT22;32291;52.010;4.446;2024-03-25T05:40:55;2.10;99.90
47521;DHT22;32291;52.010;4.446;2024-03-25T05:41:58;2.10;99.90
47521;DHT22;32291;52.010;4.446;2024-03-25T05:43:00;2.10;99.90
47521;DHT22;32291;52.010;4.446;2024-03-25T05:44:08;2.00;99.90
47521;DHT22;32291;52.010;4.446;2024-03-25T05:45:15;2.00;99.90
47521;DHT22;32291;52.010;4.446;2024-03-25T05:46:17;2.00;99.90
47521;DHT22;32291;52.010;4.446;2024-03-25T05:47:24;2.00;99.90
47521;DHT22;32291;52.010;4.446;2024-03-25T05:48:27;2.00;99.90
47521;DHT22;32291;52.010;4.446;2024-03-25T05:49:29;2.00;99.90
47521;DHT22;32291;52.010;4.446;2024-03-25T05:50:32;2.00;99.90
47521;DHT22;32291;52.010;4.446;2024-03-25T05:51:34;2.00;99.90
47521;DHT22;32291;52.010;4.446;2024-03-25T05:52:40;2.00;99.90
47521;DHT22;32291;52.010;4.446;2024-03-25T05:53:47;2.00;99.90
47521;DHT22;32291;52.010;4.446;2024-03-25T05:54:50;2.00;99.90
47521;DHT22;32291;52.010;4.446;2024-03-25T05:55:52;2.00;99.90
47521;DHT22;32291;52.010;4.446;2024-03-25T05:56:59;2.00;99.90
47521;DHT22;32291;52.010;4.446;2024-03-25T05:58:01;2.00;99.90
47521;DHT22;32291;52.010;4.446;2024-03-25T05:59:04;2.10;99.90
47521;DHT22;32291;52.010;4.446;2024-03-25T06:00:07;2.00;99.90
47521;DHT22;32291;52.010;4.446;2024-03-25T06:01:14;2.00;99.90
47521;DHT22;32291;52.010;4.446;2024-03-25T06:02:17;2.00;99.90
47521;DHT22;32291;52.010;4.446;2024-03-25T06:03:19;2.00;99.90
47521;DHT22;32291;52.010;4.446;2024-03-25T06:04:27;2.00;99.90
47521;DHT22;32291;52.010;4.446;2024-03-25T06:05:29;2.00;99.90
47521;DHT22;32291;52.010;4.446;2024-03-25T06:06:36;2.00;99.90
47521;DHT22;32291;52.010;4.446;2024-03-25T06:07:41;2.00;99.90
47521;DHT22;32291;52.010;4.446;2024-03-25T06:08:48;2.10;99.90
47521;DHT22;32291;52.010;4.446;2024-03-25T06:09:52;2.00;99.90
47521;DHT22;32291;52.010;4.446;2024-03-25T06:10:55;2.10;99.90
47521;DHT22;32291;52.010;4.446;2024-03-25T06:12:03;2.20;99.90
47521;DHT22;32291;52.010;4.446;2024-03-25T06:13:08;2.10;99.90
47521;DHT22;32291;52.010;4.446;2024-03-25T06:14:15;2.10;99.90
47521;DHT22;32291;52.010;4.446;2024-03-25T06:15:17;2.10;99.90
47521;DHT22;32291;52.010;4.446;2024-03-25T06:16:20;2.10;99.90
47521;DHT22;32291;52.010;4.446;2024-03-25T06:17:22;2.20;99.90
47521;DHT22;32291;52.010;4.446;2024-03-25T06:18:24;2.30;99.90
47521;DHT22;32291;52.010;4.446;2024-03-25T06:19:27;2.20;99.90
47521;DHT22;32291;52.010;4.446;2024-03-25T06:20:29;2.40;99.90
47521;DHT22;32291;52.010;4.446;2024-03-25T06:21:31;2.40;99.90
47521;DHT22;32291;52.010;4.446;2024-03-25T06:22:33;2.50;99.90
47521;DHT22;32291;52.010;4.446;2024-03-25T06:23:40;2.60;99.90
47521;DHT22;32291;52.010;4.446;2024-03-25T06:24:42;2.60;99.90
47521;DHT22;32291;52.010;4.446;2024-03-25T06:25:50;2.60;99.90
47521;DHT22;32291;52.010;4.446;2024-03-25T06:26:53;2.70;99.90
47521;DHT22;32291;52.010;4.446;2024-03-25T06:27:55;2.70;99.90
47521;DHT22;32291;52.010;4.446;2024-03-25T06:29:02;2.70;99.90
47521;DHT22;32291;52.010;4.446;2024-03-25T06:30:05;2.70;99.90
47521;DHT22;32291;52.010;4.446;2024-03-25T06:31:31;2.70;99.90
47521;DHT22;32291;52.010;4.446;2024-03-25T06:32:56;2.80;99.90
47521;DHT22;32291;52.010;4.446;2024-03-25T06:34:17;2.80;99.90
47521;DHT22;32291;52.010;4.446;2024-03-25T06:35:24;3.00;99.90
47521;DHT22;32291;52.010;4.446;2024-03-25T06:36:31;2.90;99.90
47521;DHT22;32291;52.010;4.446;2024-03-25T06:37:38;2.90;99.90
47521;DHT22;32291;52.010;4.446;2024-03-25T06:38:40;3.00;99.90
47521;DHT22;32291;52.010;4.446;2024-03-25T06:39:47;3.00;99.90
47521;DHT22;32291;52.010;4.446;2024-03-25T06:40:53;3.10;99.90
47521;DHT22;32291;52.010;4.446;2024-03-25T06:42:01;3.20;99.90
47521;DHT22;32291;52.010;4.446;2024-03-25T06:43:04;3.30;99.90
47521;DHT22;32291;52.010;4.446;2024-03-25T06:44:07;3.40;99.90
47521;DHT22;32291;52.010;4.446;2024-03-25T06:45:09;3.50;99.90
47521;DHT22;32291;52.010;4.446;2024-03-25T06:46:16;3.60;99.90
47521;DHT22;32291;52.010;4.446;2024-03-25T06:47:23;3.60;99.90
47521;DHT22;32291;52.010;4.446;2024-03-25T06:48:25;3.70;99.90
47521;DHT22;32291;52.010;4.446;2024-03-25T06:49:28;3.70;99.90
47521;DHT22;32291;52.010;4.446;2024-03-25T06:50:35;3.80;99.90
47521;DHT22;32291;52.010;4.446;2024-03-25T06:51:43;3.80;99.90
47521;DHT22;32291;52.010;4.446;2024-03-25T06:52:50;3.90;99.90
47521;DHT22;32291;52.010;4.446;2024-03-25T06:53:52;4.00;99.90
47521;DHT22;32291;52.010;4.446;2024-03-25T06:54:59;4.10;99.90